メインページ
METAR-TAF:

METAR-TAF

空港 :

ザグレブ国際空港

ザグレブ, クロアチア

緯度: 45-44N, 経度: 016-04E, 海抜: 106m

現時点の気象観測

当レポートは18分前の12:00(UTC)に作成
西/南西の風 9kt、から西/北西の間で変化する
気温 23°C
湿度 23%
気圧 1011 hPa
視程10km以上
1,500メートル以下は雲なし、積乱雲なし

METAR: LDZA 221200Z 24009KT 170V290 CAVOK 23/01 Q1011 NOSIG

時間: 14:18 (12:18 UTC)

予報

当レポートは53分前の11:25(UTC)に作成
予報は22日の 12時(UTC)から 23日の 12時(UTC)まで有効
南西の風 5kt
視程10km以上
高度4500ftの雲は散在している
確率 40% :
22日の 12時(UTC)から 22日の 17時(UTC)まで一時的に
南西の風 10kt
確率 30% :
22日の 17時(UTC)から 22日の 20時(UTC)まで一時的に
南西の風 12kt
高度4000ftの雲はほとんどない, 塔状積雲.
23日の 04時(UTC)から 23日の 07時(UTC)まで徐々に
東/南東の風 10kt
確率 40% :
23日の 05時(UTC)から 23日の 09時(UTC)まで一時的に
高度1200ftの千切れ雲あり
確率 30% :
23日の 07時(UTC)から 23日の 12時(UTC)まで一時的に
高度2000ftの雲はほとんどない, 塔状積雲.
高度3000ftの千切れ雲あり
にわか雨

TAF: LDZA 221125Z 2212/2312 23005KT 9999 SCT045 TX23/2213Z TN10/2306Z PROB40 TEMPO 2212/2217 23010KT PROB30 TEMPO 2217/2220 23012KT FEW040TCU BECMG 2304/2307 11010KT PROB40 TEMPO 2305/2309 RA BKN012 PROB30 TEMPO 2307/2312 SHRA FEW020TCU BKN030

4,000以上の空港の気象観測と天気予報(METAR報とTAF報)

利用可能な観測所は地図上に黄色い丸と赤い丸で示す。

丸の上にカーソルを重ねると観測所名を参照できる。

次にクリックすると気象観測と天気予報を参照できる。

マップの切り替え:黒色「×」印の緑ボタンをクリックして拡大、「-」印の緑ボタンをクリックして縮小、緑色の三角印をクリックして隣りの地図に切り替え


METAR-TAF: